Aviation Digital Data Service (ADDS)

Output produced by METARs form (1409 UTC 24 August 2019)
found at http://www.aviationweather.gov/metar/data/
 
METAR text: RJCC 241400Z 36006KT 9999 FEW008 BKN040 17/16 Q1007
Conditions at: RJCC (CHITOSE (JASDF/C, JP) observed 1400 UTC 24 August 2019
Temperature: 17.0°C (63°F)
Dewpoint: 16.0°C (61°F) [RH = 94%]
Pressure (altimeter): 29.73 inches Hg (1007.0 mb)
Winds: from the N (360 degrees) at 7 MPH (6 knots; 3.1 m/s)
Visibility: 6 or more miles (10+ km)
Ceiling: 4000 feet AGL
Clouds: few clouds at 800 feet AGL
broken clouds at 4000 feet AGL
Weather: no significant weather observed at this time

METAR text: RJCC 241330Z 35008KT 9999 FEW008 SCT040 17/16 Q1007
Conditions at: RJCC (CHITOSE (JASDF/C, JP) observed 1330 UTC 24 August 2019
Temperature: 17.0°C (63°F)
Dewpoint: 16.0°C (61°F) [RH = 94%]
Pressure (altimeter): 29.73 inches Hg (1007.0 mb)
Winds: from the N (350 degrees) at 9 MPH (8 knots; 4.1 m/s)
Visibility: 6 or more miles (10+ km)
Ceiling: at least 12,000 feet AGL
Clouds: few clouds at 800 feet AGL
scattered clouds at 4000 feet AGL
Weather: no significant weather observed at this time

METAR text: RJCC 241300Z 36007KT 9999 FEW008 17/16 Q1007 RMK 2ST008 A2974
Conditions at: RJCC (CHITOSE (JASDF/C, JP) observed 1300 UTC 24 August 2019
Temperature: 17.0°C (63°F)
Dewpoint: 16.0°C (61°F) [RH = 94%]
Pressure (altimeter): 29.73 inches Hg (1007.0 mb)
Winds: from the N (360 degrees) at 8 MPH (7 knots; 3.6 m/s)
Visibility: 6 or more miles (10+ km)
Ceiling: at least 12,000 feet AGL
Clouds: few clouds at 800 feet AGL
Weather: no significant weather observed at this time

METAR text: RJCC 241230Z 01006KT 9999 FEW008 17/16 Q1007 RMK 1ST008 A2974
Conditions at: RJCC (CHITOSE (JASDF/C, JP) observed 1230 UTC 24 August 2019
Temperature: 17.0°C (63°F)
Dewpoint: 16.0°C (61°F) [RH = 94%]
Pressure (altimeter): 29.73 inches Hg (1007.0 mb)
Winds: from the N (10 degrees) at 7 MPH (6 knots; 3.1 m/s)
Visibility: 6 or more miles (10+ km)
Ceiling: at least 12,000 feet AGL
Clouds: few clouds at 800 feet AGL
Weather: no significant weather observed at this time

METAR text: RJCC 241200Z 01006KT 9999 FEW020 17/16 Q1007 RMK 1CU020 A2974
Conditions at: RJCC (CHITOSE (JASDF/C, JP) observed 1200 UTC 24 August 2019
Temperature: 17.0°C (63°F)
Dewpoint: 16.0°C (61°F) [RH = 94%]
Pressure (altimeter): 29.73 inches Hg (1007.0 mb)
Winds: from the N (10 degrees) at 7 MPH (6 knots; 3.1 m/s)
Visibility: 6 or more miles (10+ km)
Ceiling: at least 12,000 feet AGL
Clouds: few clouds at 2000 feet AGL
Weather: no significant weather observed at this time

METAR text: RJCC 241130Z 36006KT 9999 FEW020 17/16 Q1007 RMK 1CU020 A2974
Conditions at: RJCC (CHITOSE (JASDF/C, JP) observed 1130 UTC 24 August 2019
Temperature: 17.0°C (63°F)
Dewpoint: 16.0°C (61°F) [RH = 94%]
Pressure (altimeter): 29.73 inches Hg (1007.0 mb)
Winds: from the N (360 degrees) at 7 MPH (6 knots; 3.1 m/s)
Visibility: 6 or more miles (10+ km)
Ceiling: at least 12,000 feet AGL
Clouds: few clouds at 2000 feet AGL
Weather: no significant weather observed at this time

METAR text: RJCC 241100Z 35010KT 9999 FEW020 18/16 Q1006 RMK 1CU020 A2973
Conditions at: RJCC (CHITOSE (JASDF/C, JP) observed 1100 UTC 24 August 2019
Temperature: 18.0°C (64°F)
Dewpoint: 16.0°C (61°F) [RH = 88%]
Pressure (altimeter): 29.70 inches Hg (1006.0 mb)
Winds: from the N (350 degrees) at 12 MPH (10 knots; 5.1 m/s)
Visibility: 6 or more miles (10+ km)
Ceiling: at least 12,000 feet AGL
Clouds: few clouds at 2000 feet AGL
Weather: no significant weather observed at this time

METAR text: RJCC 241030Z 35010KT 9999 FEW015 SCT040 18/16 Q1006 RMK 1ST015 3CU040 A2973
Conditions at: RJCC (CHITOSE (JASDF/C, JP) observed 1030 UTC 24 August 2019
Temperature: 18.0°C (64°F)
Dewpoint: 16.0°C (61°F) [RH = 88%]
Pressure (altimeter): 29.70 inches Hg (1006.0 mb)
Winds: from the N (350 degrees) at 12 MPH (10 knots; 5.1 m/s)
Visibility: 6 or more miles (10+ km)
Ceiling: at least 12,000 feet AGL
Clouds: few clouds at 1500 feet AGL
scattered clouds at 4000 feet AGL
Weather: no significant weather observed at this time

METAR text: RJCC 241000Z 35010KT 9999 FEW015 BKN040 18/16 Q1006 RMK 1ST015 5CU040 A2972
Conditions at: RJCC (CHITOSE (JASDF/C, JP) observed 1000 UTC 24 August 2019
Temperature: 18.0°C (64°F)
Dewpoint: 16.0°C (61°F) [RH = 88%]
Pressure (altimeter): 29.70 inches Hg (1006.0 mb)
Winds: from the N (350 degrees) at 12 MPH (10 knots; 5.1 m/s)
Visibility: 6 or more miles (10+ km)
Ceiling: 4000 feet AGL
Clouds: few clouds at 1500 feet AGL
broken clouds at 4000 feet AGL
Weather: no significant weather observed at this time

METAR text: RJCC 240930Z 35013KT 9999 FEW015 SCT035 BKN045 19/16 Q1006 RMK 1ST015 3CU035 6CU045 A2971
Conditions at: RJCC (CHITOSE (JASDF/C, JP) observed 0930 UTC 24 August 2019
Temperature: 19.0°C (66°F)
Dewpoint: 16.0°C (61°F) [RH = 83%]
Pressure (altimeter): 29.70 inches Hg (1006.0 mb)
Winds: from the N (350 degrees) at 15 MPH (13 knots; 6.7 m/s)
Visibility: 6 or more miles (10+ km)
Ceiling: 4500 feet AGL
Clouds: few clouds at 1500 feet AGL
scattered clouds at 3500 feet AGL
broken clouds at 4500 feet AGL
Weather: no significant weather observed at this time

METAR text: RJCC 240900Z 35012KT 9999 FEW015 SCT035 BKN045 20/16 Q1005 RMK 1ST015 4CU035 5CU045 A2970
Conditions at: RJCC (CHITOSE (JASDF/C, JP) observed 0900 UTC 24 August 2019
Temperature: 20.0°C (68°F)
Dewpoint: 16.0°C (61°F) [RH = 78%]
Pressure (altimeter): 29.68 inches Hg (1005.0 mb)
Winds: from the N (350 degrees) at 14 MPH (12 knots; 6.2 m/s)
Visibility: 6 or more miles (10+ km)
Ceiling: 4500 feet AGL
Clouds: few clouds at 1500 feet AGL
scattered clouds at 3500 feet AGL
broken clouds at 4500 feet AGL
Weather: no significant weather observed at this time

METAR text: RJCC 240830Z 36012KT 9999 FEW015 SCT020 BKN035 20/17 Q1005 RMK 1ST015 3CU020 5CU035 A2969
Conditions at: RJCC (CHITOSE (JASDF/C, JP) observed 0830 UTC 24 August 2019
Temperature: 20.0°C (68°F)
Dewpoint: 17.0°C (63°F) [RH = 83%]
Pressure (altimeter): 29.68 inches Hg (1005.0 mb)
Winds: from the N (360 degrees) at 14 MPH (12 knots; 6.2 m/s)
Visibility: 6 or more miles (10+ km)
Ceiling: 3500 feet AGL
Clouds: few clouds at 1500 feet AGL
scattered clouds at 2000 feet AGL
broken clouds at 3500 feet AGL
Weather: no significant weather observed at this time

METAR text: RJCC 240800Z 35011KT 9999 FEW015 SCT020 BKN035 21/17 Q1005 RMK 1ST015 3CU020 5CU035 A2968
Conditions at: RJCC (CHITOSE (JASDF/C, JP) observed 0800 UTC 24 August 2019
Temperature: 21.0°C (70°F)
Dewpoint: 17.0°C (63°F) [RH = 78%]
Pressure (altimeter): 29.68 inches Hg (1005.0 mb)
Winds: from the N (350 degrees) at 13 MPH (11 knots; 5.7 m/s)
Visibility: 6 or more miles (10+ km)
Ceiling: 3500 feet AGL
Clouds: few clouds at 1500 feet AGL
scattered clouds at 2000 feet AGL
broken clouds at 3500 feet AGL
Weather: no significant weather observed at this time

METAR text: RJCC 240730Z 36008KT 9999 FEW015 BKN035 BKN050 21/18 Q1004 RMK 1ST015 5CU035 6CU050 A2967
Conditions at: RJCC (CHITOSE (JASDF/C, JP) observed 0730 UTC 24 August 2019
Temperature: 21.0°C (70°F)
Dewpoint: 18.0°C (64°F) [RH = 83%]
Pressure (altimeter): 29.65 inches Hg (1004.0 mb)
Winds: from the N (360 degrees) at 9 MPH (8 knots; 4.1 m/s)
Visibility: 6 or more miles (10+ km)
Ceiling: 3500 feet AGL
Clouds: few clouds at 1500 feet AGL
broken clouds at 3500 feet AGL
broken clouds at 5000 feet AGL
Weather: no significant weather observed at this time

METAR text: RJCC 240700Z 36010KT 9999 FEW015 SCT035 BKN050 22/18 Q1004 RMK 1ST015 3CU035 5CU050 A2966
Conditions at: RJCC (CHITOSE (JASDF/C, JP) observed 0700 UTC 24 August 2019
Temperature: 22.0°C (72°F)
Dewpoint: 18.0°C (64°F) [RH = 78%]
Pressure (altimeter): 29.65 inches Hg (1004.0 mb)
Winds: from the N (360 degrees) at 12 MPH (10 knots; 5.1 m/s)
Visibility: 6 or more miles (10+ km)
Ceiling: 5000 feet AGL
Clouds: few clouds at 1500 feet AGL
scattered clouds at 3500 feet AGL
broken clouds at 5000 feet AGL
Weather: no significant weather observed at this time

METAR text: RJCC 240630Z 01009KT 9999 -SHRA FEW015 SCT035 BKN050 22/17 Q1004 RMK 1ST015 3CU035 5CU050 A2966
Conditions at: RJCC (CHITOSE (JASDF/C, JP) observed 0630 UTC 24 August 2019
Temperature: 22.0°C (72°F)
Dewpoint: 17.0°C (63°F) [RH = 73%]
Pressure (altimeter): 29.65 inches Hg (1004.0 mb)
Winds: from the N (10 degrees) at 10 MPH (9 knots; 4.6 m/s)
Visibility: 6 or more miles (10+ km)
Ceiling: 5000 feet AGL
Clouds: few clouds at 1500 feet AGL
scattered clouds at 3500 feet AGL
broken clouds at 5000 feet AGL
Weather: -SHRA  (light rain showers)

METAR text: RJCC 240600Z 01010KT 9999 FEW010 SCT035 BKN050 22/18 Q1004 RMK 1ST010 3CU035 5CU050 A2965
Conditions at: RJCC (CHITOSE (JASDF/C, JP) observed 0600 UTC 24 August 2019
Temperature: 22.0°C (72°F)
Dewpoint: 18.0°C (64°F) [RH = 78%]
Pressure (altimeter): 29.65 inches Hg (1004.0 mb)
Winds: from the N (10 degrees) at 12 MPH (10 knots; 5.1 m/s)
Visibility: 6 or more miles (10+ km)
Ceiling: 5000 feet AGL
Clouds: few clouds at 1000 feet AGL
scattered clouds at 3500 feet AGL
broken clouds at 5000 feet AGL
Weather: no significant weather observed at this time

METAR text: RJCC 240530Z 36011KT 9999 FEW010 SCT030 BKN060 22/18 Q1003 RMK 1ST010 3CU030 5CU060 A2964
Conditions at: RJCC (CHITOSE (JASDF/C, JP) observed 0530 UTC 24 August 2019
Temperature: 22.0°C (72°F)
Dewpoint: 18.0°C (64°F) [RH = 78%]
Pressure (altimeter): 29.62 inches Hg (1003.0 mb)
Winds: from the N (360 degrees) at 13 MPH (11 knots; 5.7 m/s)
Visibility: 6 or more miles (10+ km)
Ceiling: 6000 feet AGL
Clouds: few clouds at 1000 feet AGL
scattered clouds at 3000 feet AGL
broken clouds at 6000 feet AGL
Weather: no significant weather observed at this time

METAR text: RJCC 240500Z 36011KT 9999 FEW010 SCT040 23/19 Q1003 RMK 1ST010 4CU040 A2964
Conditions at: RJCC (CHITOSE (JASDF/C, JP) observed 0500 UTC 24 August 2019
Temperature: 23.0°C (73°F)
Dewpoint: 19.0°C (66°F) [RH = 78%]
Pressure (altimeter): 29.62 inches Hg (1003.0 mb)
Winds: from the N (360 degrees) at 13 MPH (11 knots; 5.7 m/s)
Visibility: 6 or more miles (10+ km)
Ceiling: at least 12,000 feet AGL
Clouds: few clouds at 1000 feet AGL
scattered clouds at 4000 feet AGL
Weather: no significant weather observed at this time

METAR text: RJCC 240430Z 01011KT 9999 VCSH FEW010 SCT020 BKN060 22/18 Q1003 RMK 1ST010 3CU020 5CU060 A2964 SH S
Conditions at: RJCC (CHITOSE (JASDF/C, JP) observed 0430 UTC 24 August 2019
Temperature: 22.0°C (72°F)
Dewpoint: 18.0°C (64°F) [RH = 78%]
Pressure (altimeter): 29.62 inches Hg (1003.0 mb)
Winds: from the N (10 degrees) at 13 MPH (11 knots; 5.7 m/s)
Visibility: 6 or more miles (10+ km)
Ceiling: 6000 feet AGL
Clouds: few clouds at 1000 feet AGL
scattered clouds at 2000 feet AGL
broken clouds at 6000 feet AGL
Weather: VCSH  (showers in vicinity)

METAR text: RJCC 240400Z 36012KT 9999 FEW010 SCT015 BKN025 23/18 Q1003 RMK 1ST010 3ST015 5CU025 A2964
Conditions at: RJCC (CHITOSE (JASDF/C, JP) observed 0400 UTC 24 August 2019
Temperature: 23.0°C (73°F)
Dewpoint: 18.0°C (64°F) [RH = 73%]
Pressure (altimeter): 29.62 inches Hg (1003.0 mb)
Winds: from the N (360 degrees) at 14 MPH (12 knots; 6.2 m/s)
Visibility: 6 or more miles (10+ km)
Ceiling: 2500 feet AGL
Clouds: few clouds at 1000 feet AGL
scattered clouds at 1500 feet AGL
broken clouds at 2500 feet AGL
Weather: no significant weather observed at this time

METAR text: RJCC 240330Z 36012KT 9999 FEW010 SCT015 BKN025 23/19 Q1003 RMK 1ST010 3ST015 6CU025 A2964
Conditions at: RJCC (CHITOSE (JASDF/C, JP) observed 0330 UTC 24 August 2019
Temperature: 23.0°C (73°F)
Dewpoint: 19.0°C (66°F) [RH = 78%]
Pressure (altimeter): 29.62 inches Hg (1003.0 mb)
Winds: from the N (360 degrees) at 14 MPH (12 knots; 6.2 m/s)
Visibility: 6 or more miles (10+ km)
Ceiling: 2500 feet AGL
Clouds: few clouds at 1000 feet AGL
scattered clouds at 1500 feet AGL
broken clouds at 2500 feet AGL
Weather: no significant weather observed at this time

METAR text: RJCC 240300Z 36012KT 9999 FEW010 SCT015 BKN030 23/19 Q1003 RMK 1ST010 3ST015 5CU030 A2964
Conditions at: RJCC (CHITOSE (JASDF/C, JP) observed 0300 UTC 24 August 2019
Temperature: 23.0°C (73°F)
Dewpoint: 19.0°C (66°F) [RH = 78%]
Pressure (altimeter): 29.62 inches Hg (1003.0 mb)
Winds: from the N (360 degrees) at 14 MPH (12 knots; 6.2 m/s)
Visibility: 6 or more miles (10+ km)
Ceiling: 3000 feet AGL
Clouds: few clouds at 1000 feet AGL
scattered clouds at 1500 feet AGL
broken clouds at 3000 feet AGL
Weather: no significant weather observed at this time

METAR text: RJCC 240230Z 35012KT 9999 -SHRA FEW008 SCT015 FEW020CB BKN025 22/19 Q1003 RMK 1ST008 3ST015 1CB020 6CU025 A2963 CB 10KM S MOV E
Conditions at: RJCC (CHITOSE (JASDF/C, JP) observed 0230 UTC 24 August 2019
Temperature: 22.0°C (72°F)
Dewpoint: 19.0°C (66°F) [RH = 83%]
Pressure (altimeter): 29.62 inches Hg (1003.0 mb)
Winds: from the N (350 degrees) at 14 MPH (12 knots; 6.2 m/s)
Visibility: 6 or more miles (10+ km)
Ceiling: 2500 feet AGL
Clouds: few clouds at 800 feet AGL
scattered clouds at 1500 feet AGL
few clouds at 2000 feet AGL
broken clouds at 2500 feet AGL
Weather: -SHRA  (light rain showers)

METAR text: RJCC 240200Z 35014KT 9999 -SHRA FEW008 SCT015 BKN025 24/19 Q1003
Conditions at: RJCC (CHITOSE (JASDF/C, JP) observed 0200 UTC 24 August 2019
Temperature: 24.0°C (75°F)
Dewpoint: 19.0°C (66°F) [RH = 74%]
Pressure (altimeter): 29.62 inches Hg (1003.0 mb)
Winds: from the N (350 degrees) at 16 MPH (14 knots; 7.2 m/s)
Visibility: 6 or more miles (10+ km)
Ceiling: 2500 feet AGL
Clouds: few clouds at 800 feet AGL
scattered clouds at 1500 feet AGL
broken clouds at 2500 feet AGL
Weather: -SHRA  (light rain showers)

METAR text: RJCC 240130Z 34010KT 300V010 9999 FEW010 SCT020 24/20 Q1003 RMK 1ST010 4CU020 A2962
Conditions at: RJCC (CHITOSE (JASDF/C, JP) observed 0130 UTC 24 August 2019
Temperature: 24.0°C (75°F)
Dewpoint: 20.0°C (68°F) [RH = 78%]
Pressure (altimeter): 29.62 inches Hg (1003.0 mb)
Winds: from the NNW (340 degrees) at 12 MPH (10 knots; 5.1 m/s)
Visibility: 6 or more miles (10+ km)
Ceiling: at least 12,000 feet AGL
Clouds: few clouds at 1000 feet AGL
scattered clouds at 2000 feet AGL
Weather: no significant weather observed at this time

METAR text: RJCC 240100Z 36009KT 9999 FEW010 SCT015 24/20 Q1003 RMK 1ST010 4ST015 A2962
Conditions at: RJCC (CHITOSE (JASDF/C, JP) observed 0100 UTC 24 August 2019
Temperature: 24.0°C (75°F)
Dewpoint: 20.0°C (68°F) [RH = 78%]
Pressure (altimeter): 29.62 inches Hg (1003.0 mb)
Winds: from the N (360 degrees) at 10 MPH (9 knots; 4.6 m/s)
Visibility: 6 or more miles (10+ km)
Ceiling: at least 12,000 feet AGL
Clouds: few clouds at 1000 feet AGL
scattered clouds at 1500 feet AGL
Weather: no significant weather observed at this time

METAR text: RJCC 240030Z 34013KT 9999 FEW008 BKN018 22/20 Q1003 RMK 1ST008 5ST018 A2962
Conditions at: RJCC (CHITOSE (JASDF/C, JP) observed 0030 UTC 24 August 2019
Temperature: 22.0°C (72°F)
Dewpoint: 20.0°C (68°F) [RH = 88%]
Pressure (altimeter): 29.62 inches Hg (1003.0 mb)
Winds: from the NNW (340 degrees) at 15 MPH (13 knots; 6.7 m/s)
Visibility: 6 or more miles (10+ km)
Ceiling: 1800 feet AGL
Clouds: few clouds at 800 feet AGL
broken clouds at 1800 feet AGL
Weather: no significant weather observed at this time

METAR text: RJCC 240000Z 34010KT 9999 FEW008 BKN012 22/20 Q1002 RMK 1ST008 6ST012 A2961
Conditions at: RJCC (CHITOSE (JASDF/C, JP) observed 0000 UTC 24 August 2019
Temperature: 22.0°C (72°F)
Dewpoint: 20.0°C (68°F) [RH = 88%]
Pressure (altimeter): 29.59 inches Hg (1002.0 mb)
Winds: from the NNW (340 degrees) at 12 MPH (10 knots; 5.1 m/s)
Visibility: 6 or more miles (10+ km)
Ceiling: 1200 feet AGL
Clouds: few clouds at 800 feet AGL
broken clouds at 1200 feet AGL
Weather: no significant weather observed at this time

METAR text: RJCC 232330Z 34007KT 9999 FEW005 SCT010 BKN060 22/20 Q1002 RMK 1ST005 4ST010 6CU060 A2961
Conditions at: RJCC (CHITOSE (JASDF/C, JP) observed 2330 UTC 23 August 2019
Temperature: 22.0°C (72°F)
Dewpoint: 20.0°C (68°F) [RH = 88%]
Pressure (altimeter): 29.59 inches Hg (1002.0 mb)
Winds: from the NNW (340 degrees) at 8 MPH (7 knots; 3.6 m/s)
Visibility: 6 or more miles (10+ km)
Ceiling: 6000 feet AGL
Clouds: few clouds at 500 feet AGL
scattered clouds at 1000 feet AGL
broken clouds at 6000 feet AGL
Weather: no significant weather observed at this time

METAR text: RJCC 232300Z 33004KT 280V030 9999 FEW002 BKN008 BKN050 20/19 Q1002 RMK 1ST002 5ST008 6CU050 A2961
Conditions at: RJCC (CHITOSE (JASDF/C, JP) observed 2300 UTC 23 August 2019
Temperature: 20.0°C (68°F)
Dewpoint: 19.0°C (66°F) [RH = 94%]
Pressure (altimeter): 29.59 inches Hg (1002.0 mb)
Winds: from the NNW (330 degrees) at 5 MPH (4 knots; 2.1 m/s)
Visibility: 6 or more miles (10+ km)
Ceiling: 800 feet AGL
Clouds: few clouds at 200 feet AGL
broken clouds at 800 feet AGL
broken clouds at 5000 feet AGL
Weather: no significant weather observed at this time

METAR text: RJCC 232230Z 28003KT 230V330 9999 FEW002 SCT005 BKN050 20/19 Q1002 RMK 1ST002 3ST005 6CU050 A2961
Conditions at: RJCC (CHITOSE (JASDF/C, JP) observed 2230 UTC 23 August 2019
Temperature: 20.0°C (68°F)
Dewpoint: 19.0°C (66°F) [RH = 94%]
Pressure (altimeter): 29.59 inches Hg (1002.0 mb)
Winds: from the W (280 degrees) at 3 MPH (3 knots; 1.5 m/s)
Visibility: 6 or more miles (10+ km)
Ceiling: 5000 feet AGL
Clouds: few clouds at 200 feet AGL
scattered clouds at 500 feet AGL
broken clouds at 5000 feet AGL
Weather: no significant weather observed at this time

METAR text: RJCC 232200Z 32006KT 8000 FEW001 SCT003 BKN014 19/19 Q1002 RMK 1ST001 4ST003 6ST014 A2960
Conditions at: RJCC (CHITOSE (JASDF/C, JP) observed 2200 UTC 23 August 2019
Temperature: 19.0°C (66°F)
Dewpoint: 19.0°C (66°F) [RH = 100%]
Pressure (altimeter): 29.59 inches Hg (1002.0 mb)
Winds: from the NW (320 degrees) at 7 MPH (6 knots; 3.1 m/s)
Visibility: 5 miles ( 8 km)
Ceiling: 1400 feet AGL
Clouds: few clouds at 100 feet AGL
scattered clouds at 300 feet AGL
broken clouds at 1400 feet AGL
Weather: no significant weather observed at this time

METAR text: RJCC 232141Z 32006KT 6000 FEW001 BKN003 BKN016 19/19 Q1002 RMK 1ST001 5ST003 6ST016 A2960
Conditions at: RJCC (CHITOSE (JASDF/C, JP) observed 2141 UTC 23 August 2019
Temperature: 19.0°C (66°F)
Dewpoint: 19.0°C (66°F) [RH = 100%]
Pressure (altimeter): 29.59 inches Hg (1002.0 mb)
Winds: from the NW (320 degrees) at 7 MPH (6 knots; 3.1 m/s)
Visibility: 4 miles ( 6 km)
Ceiling: 300 feet AGL
Clouds: few clouds at 100 feet AGL
broken clouds at 300 feet AGL
broken clouds at 1600 feet AGL
Weather: no significant weather observed at this time

METAR text: RJCC 232130Z 33006KT 6000 PRFG FEW001 SCT003 BKN040 19/19 Q1002 RMK 1ST001 4ST003 5CU040 A2960 2000SW-NW FG SW-NW
Conditions at: RJCC (CHITOSE (JASDF/C, JP) observed 2130 UTC 23 August 2019
Temperature: 19.0°C (66°F)
Dewpoint: 19.0°C (66°F) [RH = 100%]
Pressure (altimeter): 29.59 inches Hg (1002.0 mb)
Winds: from the NNW (330 degrees) at 7 MPH (6 knots; 3.1 m/s)
Visibility: 4 miles ( 6 km)
Ceiling: 4000 feet AGL
Clouds: few clouds at 100 feet AGL
scattered clouds at 300 feet AGL
broken clouds at 4000 feet AGL
Weather: PRFG  (partial fog)

METAR text: RJCC 232100Z 33005KT 5000 BR FEW001 SCT003 BKN016 18/18 Q1002 RMK 1ST001 4ST003 5ST016 A2960
Conditions at: RJCC (CHITOSE (JASDF/C, JP) observed 2100 UTC 23 August 2019
Temperature: 18.0°C (64°F)
Dewpoint: 18.0°C (64°F) [RH = 100%]
Pressure (altimeter): 29.59 inches Hg (1002.0 mb)
Winds: from the NNW (330 degrees) at 6 MPH (5 knots; 2.6 m/s)
Visibility: 3 miles ( 5 km)
Ceiling: 1600 feet AGL
Clouds: few clouds at 100 feet AGL
scattered clouds at 300 feet AGL
broken clouds at 1600 feet AGL
Weather: BR  (mist)

METAR text: RJCC 232044Z 32007KT 5000 BR FEW001 BKN003 BKN010 18/18 Q1002 RMK 1ST001 5ST003 6ST010 A2960
Conditions at: RJCC (CHITOSE (JASDF/C, JP) observed 2044 UTC 23 August 2019
Temperature: 18.0°C (64°F)
Dewpoint: 18.0°C (64°F) [RH = 100%]
Pressure (altimeter): 29.59 inches Hg (1002.0 mb)
Winds: from the NW (320 degrees) at 8 MPH (7 knots; 3.6 m/s)
Visibility: 3 miles ( 5 km)
Ceiling: 300 feet AGL
Clouds: few clouds at 100 feet AGL
broken clouds at 300 feet AGL
broken clouds at 1000 feet AGL
Weather: BR  (mist)

METAR text: RJCC 232030Z 34005KT 5000 BR FEW001 SCT006 BKN010 18/18 Q1002 RMK 1ST001 3ST006 6ST010 A2959
Conditions at: RJCC (CHITOSE (JASDF/C, JP) observed 2030 UTC 23 August 2019
Temperature: 18.0°C (64°F)
Dewpoint: 18.0°C (64°F) [RH = 100%]
Pressure (altimeter): 29.59 inches Hg (1002.0 mb)
Winds: from the NNW (340 degrees) at 6 MPH (5 knots; 2.6 m/s)
Visibility: 3 miles ( 5 km)
Ceiling: 1000 feet AGL
Clouds: few clouds at 100 feet AGL
scattered clouds at 600 feet AGL
broken clouds at 1000 feet AGL
Weather: BR  (mist)

METAR text: RJCC 232000Z 34004KT 4000 BR FEW001 SCT004 BKN006 18/18 Q1001 RMK 1ST001 3ST004 6ST006 A2958
Conditions at: RJCC (CHITOSE (JASDF/C, JP) observed 2000 UTC 23 August 2019
Temperature: 18.0°C (64°F)
Dewpoint: 18.0°C (64°F) [RH = 100%]
Pressure (altimeter): 29.56 inches Hg (1001.0 mb)
Winds: from the NNW (340 degrees) at 5 MPH (4 knots; 2.1 m/s)
Visibility: 2.49 miles (4.01 km)
Ceiling: 600 feet AGL
Clouds: few clouds at 100 feet AGL
scattered clouds at 400 feet AGL
broken clouds at 600 feet AGL
Weather: BR  (mist)

METAR text: RJCC 231930Z 34005KT 2500 BR FEW001 SCT002 BKN003 18/18 Q1001 RMK 1ST001 4ST002 5ST003 A2958
Conditions at: RJCC (CHITOSE (JASDF/C, JP) observed 1930 UTC 23 August 2019
Temperature: 18.0°C (64°F)
Dewpoint: 18.0°C (64°F) [RH = 100%]
Pressure (altimeter): 29.56 inches Hg (1001.0 mb)
Winds: from the NNW (340 degrees) at 6 MPH (5 knots; 2.6 m/s)
Visibility: 1.55 miles (2.49 km)
Ceiling: 300 feet AGL
Clouds: few clouds at 100 feet AGL
scattered clouds at 200 feet AGL
broken clouds at 300 feet AGL
Weather: BR  (mist)

METAR text: RJCC 231900Z 34008KT 3000 BR FEW001 SCT002 BKN003 18/18 Q1001 RMK 1ST001 4ST002 6ST003 A2957
Conditions at: RJCC (CHITOSE (JASDF/C, JP) observed 1900 UTC 23 August 2019
Temperature: 18.0°C (64°F)
Dewpoint: 18.0°C (64°F) [RH = 100%]
Pressure (altimeter): 29.56 inches Hg (1001.0 mb)
Winds: from the NNW (340 degrees) at 9 MPH (8 knots; 4.1 m/s)
Visibility: 1.86 miles (2.99 km)
Ceiling: 300 feet AGL
Clouds: few clouds at 100 feet AGL
scattered clouds at 200 feet AGL
broken clouds at 300 feet AGL
Weather: BR  (mist)

METAR text: RJCC 231830Z 35008KT 3000 -SHRA BR FEW001 BKN002 BKN004 18/18 Q1001 RMK 1ST001 5ST002 6ST004 A2957
Conditions at: RJCC (CHITOSE (JASDF/C, JP) observed 1830 UTC 23 August 2019
Temperature: 18.0°C (64°F)
Dewpoint: 18.0°C (64°F) [RH = 100%]
Pressure (altimeter): 29.56 inches Hg (1001.0 mb)
Winds: from the N (350 degrees) at 9 MPH (8 knots; 4.1 m/s)
Visibility: 1.86 miles (2.99 km)
Ceiling: 200 feet AGL
Clouds: few clouds at 100 feet AGL
broken clouds at 200 feet AGL
broken clouds at 400 feet AGL
Weather: -SHRA BR  (light rain showers, mist)

METAR text: RJCC 231800Z 02006KT 2000 -SHRA BR FEW001 SCT002 BKN003 18/18 Q1001 RMK 2ST001 3ST002 5ST003 A2956
Conditions at: RJCC (CHITOSE (JASDF/C, JP) observed 1800 UTC 23 August 2019
Temperature: 18.0°C (64°F)
Dewpoint: 18.0°C (64°F) [RH = 100%]
Pressure (altimeter): 29.56 inches Hg (1001.0 mb)
Winds: from the NNE (20 degrees) at 7 MPH (6 knots; 3.1 m/s)
Visibility: 1.24 miles (2.00 km)
Ceiling: 300 feet AGL
Clouds: few clouds at 100 feet AGL
scattered clouds at 200 feet AGL
broken clouds at 300 feet AGL
Weather: -SHRA BR  (light rain showers, mist)

METAR text: RJCC 231730Z 35009KT 2000 -SHRA BR FEW001 SCT003 BKN005 18/18 Q1001 RMK 1ST001 3ST003 7ST005 A2957
Conditions at: RJCC (CHITOSE (JASDF/C, JP) observed 1730 UTC 23 August 2019
Temperature: 18.0°C (64°F)
Dewpoint: 18.0°C (64°F) [RH = 100%]
Pressure (altimeter): 29.56 inches Hg (1001.0 mb)
Winds: from the N (350 degrees) at 10 MPH (9 knots; 4.6 m/s)
Visibility: 1.24 miles (2.00 km)
Ceiling: 500 feet AGL
Clouds: few clouds at 100 feet AGL
scattered clouds at 300 feet AGL
broken clouds at 500 feet AGL
Weather: -SHRA BR  (light rain showers, mist)

METAR text: RJCC 231700Z VRB02KT 3000 -SHRA BR FEW002 BKN004 BKN006 19/19 Q1001 RMK 1ST002 5ST004 7ST006 A2957
Conditions at: RJCC (CHITOSE (JASDF/C, JP) observed 1700 UTC 23 August 2019
Temperature: 19.0°C (66°F)
Dewpoint: 19.0°C (66°F) [RH = 100%]
Pressure (altimeter): 29.56 inches Hg (1001.0 mb)
Winds: variable direction winds at 2 MPH (2 knots; 1.0 m/s)
Visibility: 1.86 miles (2.99 km)
Ceiling: 400 feet AGL
Clouds: few clouds at 200 feet AGL
broken clouds at 400 feet AGL
broken clouds at 600 feet AGL
Weather: -SHRA BR  (light rain showers, mist)

METAR text: RJCC 231630Z VRB02KT 3000 R01L/2000N R01R/P2000N SHRA BR FEW002 SCT004 BKN012 19/19 Q1001
Conditions at: RJCC (CHITOSE (JASDF/C, JP) observed 1630 UTC 23 August 2019
Temperature: 19.0°C (66°F)
Dewpoint: 19.0°C (66°F) [RH = 100%]
Pressure (altimeter): 29.56 inches Hg (1001.0 mb)
Winds: variable direction winds at 2 MPH (2 knots; 1.0 m/s)
Visibility: 1.86 miles (2.99 km)
Ceiling: 1200 feet AGL
Clouds: few clouds at 200 feet AGL
scattered clouds at 400 feet AGL
broken clouds at 1200 feet AGL
Weather: SHRA BR  (rain showers, mist)

METAR text: RJCC 231600Z 13005KT 7000 -SHRA FEW002 BKN007 18/18 Q1001 RMK 1ST002 7ST007 A2957
Conditions at: RJCC (CHITOSE (JASDF/C, JP) observed 1600 UTC 23 August 2019
Temperature: 18.0°C (64°F)
Dewpoint: 18.0°C (64°F) [RH = 100%]
Pressure (altimeter): 29.56 inches Hg (1001.0 mb)
Winds: from the SE (130 degrees) at 6 MPH (5 knots; 2.6 m/s)
Visibility: 4 miles ( 7 km)
Ceiling: 700 feet AGL
Clouds: few clouds at 200 feet AGL
broken clouds at 700 feet AGL
Weather: -SHRA  (light rain showers)

METAR text: RJCC 231530Z 12005KT 5000 -SHRA BR FEW002 BKN007 18/18 Q1001 RMK 1ST002 7ST007 A2958
Conditions at: RJCC (CHITOSE (JASDF/C, JP) observed 1530 UTC 23 August 2019
Temperature: 18.0°C (64°F)
Dewpoint: 18.0°C (64°F) [RH = 100%]
Pressure (altimeter): 29.56 inches Hg (1001.0 mb)
Winds: from the ESE (120 degrees) at 6 MPH (5 knots; 2.6 m/s)
Visibility: 3 miles ( 5 km)
Ceiling: 700 feet AGL
Clouds: few clouds at 200 feet AGL
broken clouds at 700 feet AGL
Weather: -SHRA BR  (light rain showers, mist)

METAR text: RJCC 231500Z 12006KT 2500 -SHRA BR FEW002 BKN007 18/18 Q1001 RMK 2ST002 7ST007 A2958
Conditions at: RJCC (CHITOSE (JASDF/C, JP) observed 1500 UTC 23 August 2019
Temperature: 18.0°C (64°F)
Dewpoint: 18.0°C (64°F) [RH = 100%]
Pressure (altimeter): 29.56 inches Hg (1001.0 mb)
Winds: from the ESE (120 degrees) at 7 MPH (6 knots; 3.1 m/s)
Visibility: 1.55 miles (2.49 km)
Ceiling: 700 feet AGL
Clouds: few clouds at 200 feet AGL
broken clouds at 700 feet AGL
Weather: -SHRA BR  (light rain showers, mist)

METAR text: RJCC 231430Z 15003KT 2000 -SHRA BR FEW002 BKN007 18/18 Q1002 RMK 1ST002 7ST007 A2960
Conditions at: RJCC (CHITOSE (JASDF/C, JP) observed 1430 UTC 23 August 2019
Temperature: 18.0°C (64°F)
Dewpoint: 18.0°C (64°F) [RH = 100%]
Pressure (altimeter): 29.59 inches Hg (1002.0 mb)
Winds: from the SSE (150 degrees) at 3 MPH (3 knots; 1.5 m/s)
Visibility: 1.24 miles (2.00 km)
Ceiling: 700 feet AGL
Clouds: few clouds at 200 feet AGL
broken clouds at 700 feet AGL
Weather: -SHRA BR  (light rain showers, mist)

METAR text: RJCC 231400Z VRB01KT 2000 -SHRA BR FEW002 SCT003 BKN006 18/18 Q1002 RMK 1ST002 3ST003 6ST006 A2961
Conditions at: RJCC (CHITOSE (JASDF/C, JP) observed 1400 UTC 23 August 2019
Temperature: 18.0°C (64°F)
Dewpoint: 18.0°C (64°F) [RH = 100%]
Pressure (altimeter): 29.59 inches Hg (1002.0 mb)
Winds: variable direction winds at 1 MPH (1 knots; 0.5 m/s)
Visibility: 1.24 miles (2.00 km)
Ceiling: 600 feet AGL
Clouds: few clouds at 200 feet AGL
scattered clouds at 300 feet AGL
broken clouds at 600 feet AGL
Weather: -SHRA BR  (light rain showers, mist)

METAR text: RJCC 231330Z VRB01KT 2000 -SHRA BR FEW002 BKN005 BKN008 18/18 Q1002 RMK 1ST002 5ST005 6ST008 A2961
Conditions at: RJCC (CHITOSE (JASDF/C, JP) observed 1330 UTC 23 August 2019
Temperature: 18.0°C (64°F)
Dewpoint: 18.0°C (64°F) [RH = 100%]
Pressure (altimeter): 29.59 inches Hg (1002.0 mb)
Winds: variable direction winds at 1 MPH (1 knots; 0.5 m/s)
Visibility: 1.24 miles (2.00 km)
Ceiling: 500 feet AGL
Clouds: few clouds at 200 feet AGL
broken clouds at 500 feet AGL
broken clouds at 800 feet AGL
Weather: -SHRA BR  (light rain showers, mist)

METAR text: RJCC 231324Z 00000KT 2000 -SHRA BR FEW002 BKN005 BKN008 18/18 Q1003 RMK 1ST002 5ST005 6ST008 A2962
Conditions at: RJCC (CHITOSE (JASDF/C, JP) observed 1324 UTC 23 August 2019
Temperature: 18.0°C (64°F)
Dewpoint: 18.0°C (64°F) [RH = 100%]
Pressure (altimeter): 29.62 inches Hg (1003.0 mb)
Winds: calm
Visibility: 1.24 miles (2.00 km)
Ceiling: 500 feet AGL
Clouds: few clouds at 200 feet AGL
broken clouds at 500 feet AGL
broken clouds at 800 feet AGL
Weather: -SHRA BR  (light rain showers, mist)

METAR text: RJCC 231300Z 00000KT 2000 -SHRA BR FEW002 BKN006 BKN009 18/18 Q1003 RMK 1ST002 5ST006 6ST009 A2962
Conditions at: RJCC (CHITOSE (JASDF/C, JP) observed 1300 UTC 23 August 2019
Temperature: 18.0°C (64°F)
Dewpoint: 18.0°C (64°F) [RH = 100%]
Pressure (altimeter): 29.62 inches Hg (1003.0 mb)
Winds: calm
Visibility: 1.24 miles (2.00 km)
Ceiling: 600 feet AGL
Clouds: few clouds at 200 feet AGL
broken clouds at 600 feet AGL
broken clouds at 900 feet AGL
Weather: -SHRA BR  (light rain showers, mist)

METAR text: RJCC 231230Z 00000KT 2500 -SHRA BR FEW002 BKN008 BKN012 18/18 Q1003
Conditions at: RJCC (CHITOSE (JASDF/C, JP) observed 1230 UTC 23 August 2019
Temperature: 18.0°C (64°F)
Dewpoint: 18.0°C (64°F) [RH = 100%]
Pressure (altimeter): 29.62 inches Hg (1003.0 mb)
Winds: calm
Visibility: 1.55 miles (2.49 km)
Ceiling: 800 feet AGL
Clouds: few clouds at 200 feet AGL
broken clouds at 800 feet AGL
broken clouds at 1200 feet AGL
Weather: -SHRA BR  (light rain showers, mist)

METAR text: RJCC 231215Z VRB01KT 2300 -SHRA BR FEW002 SCT005 BKN010 18/18 Q1003 RMK 1ST002 3ST005 7ST010 A2963
Conditions at: RJCC (CHITOSE (JASDF/C, JP) observed 1215 UTC 23 August 2019
Temperature: 18.0°C (64°F)
Dewpoint: 18.0°C (64°F) [RH = 100%]
Pressure (altimeter): 29.62 inches Hg (1003.0 mb)
Winds: variable direction winds at 1 MPH (1 knots; 0.5 m/s)
Visibility: 1.43 miles (2.30 km)
Ceiling: 1000 feet AGL
Clouds: few clouds at 200 feet AGL
scattered clouds at 500 feet AGL
broken clouds at 1000 feet AGL
Weather: -SHRA BR  (light rain showers, mist)

METAR text: RJCC 231205Z VRB02KT 3100 -SHRA BR FEW002 BKN010 18/18 Q1003 RMK 1ST002 7ST010 A2963
Conditions at: RJCC (CHITOSE (JASDF/C, JP) observed 1205 UTC 23 August 2019
Temperature: 18.0°C (64°F)
Dewpoint: 18.0°C (64°F) [RH = 100%]
Pressure (altimeter): 29.62 inches Hg (1003.0 mb)
Winds: variable direction winds at 2 MPH (2 knots; 1.0 m/s)
Visibility: 1.93 miles (3.11 km)
Ceiling: 1000 feet AGL
Clouds: few clouds at 200 feet AGL
broken clouds at 1000 feet AGL
Weather: -SHRA BR  (light rain showers, mist)

METAR text: RJCC 231200Z VRB02KT 4000 -SHRA BR FEW002 BKN010 18/18 Q1003 RMK 1ST002 7ST010 A2963
Conditions at: RJCC (CHITOSE (JASDF/C, JP) observed 1200 UTC 23 August 2019
Temperature: 18.0°C (64°F)
Dewpoint: 18.0°C (64°F) [RH = 100%]
Pressure (altimeter): 29.62 inches Hg (1003.0 mb)
Winds: variable direction winds at 2 MPH (2 knots; 1.0 m/s)
Visibility: 2.49 miles (4.01 km)
Ceiling: 1000 feet AGL
Clouds: few clouds at 200 feet AGL
broken clouds at 1000 feet AGL
Weather: -SHRA BR  (light rain showers, mist)

METAR text: RJCC 231130Z 02001KT 7000 -SHRA FEW002 BKN015 18/18 Q1003 RMK 1ST002 7ST015 A2963
Conditions at: RJCC (CHITOSE (JASDF/C, JP) observed 1130 UTC 23 August 2019
Temperature: 18.0°C (64°F)
Dewpoint: 18.0°C (64°F) [RH = 100%]
Pressure (altimeter): 29.62 inches Hg (1003.0 mb)
Winds: from the NNE (20 degrees) at 1 MPH (1 knots; 0.5 m/s)
Visibility: 4 miles ( 7 km)
Ceiling: 1500 feet AGL
Clouds: few clouds at 200 feet AGL
broken clouds at 1500 feet AGL
Weather: -SHRA  (light rain showers)

METAR text: RJCC 231100Z 36003KT 320V020 6000 -SHRA FEW002 BKN015 18/18 Q1003 RMK 1ST002 7ST015 A2963
Conditions at: RJCC (CHITOSE (JASDF/C, JP) observed 1100 UTC 23 August 2019
Temperature: 18.0°C (64°F)
Dewpoint: 18.0°C (64°F) [RH = 100%]
Pressure (altimeter): 29.62 inches Hg (1003.0 mb)
Winds: from the N (360 degrees) at 3 MPH (3 knots; 1.5 m/s)
Visibility: 4 miles ( 6 km)
Ceiling: 1500 feet AGL
Clouds: few clouds at 200 feet AGL
broken clouds at 1500 feet AGL
Weather: -SHRA  (light rain showers)

METAR text: RJCC 231030Z 01003KT 340V050 6000 -SHRA FEW002 SCT006 BKN015 18/18 Q1003 RMK 1ST002 3ST006 7ST015 A2962
Conditions at: RJCC (CHITOSE (JASDF/C, JP) observed 1030 UTC 23 August 2019
Temperature: 18.0°C (64°F)
Dewpoint: 18.0°C (64°F) [RH = 100%]
Pressure (altimeter): 29.62 inches Hg (1003.0 mb)
Winds: from the N (10 degrees) at 3 MPH (3 knots; 1.5 m/s)
Visibility: 4 miles ( 6 km)
Ceiling: 1500 feet AGL
Clouds: few clouds at 200 feet AGL
scattered clouds at 600 feet AGL
broken clouds at 1500 feet AGL
Weather: -SHRA  (light rain showers)

METAR text: RJCC 231000Z 01005KT 6000 -SHRA FEW002 SCT006 BKN017 18/18 Q1002 RMK 1ST002 4ST006 7ST017 A2961
Conditions at: RJCC (CHITOSE (JASDF/C, JP) observed 1000 UTC 23 August 2019
Temperature: 18.0°C (64°F)
Dewpoint: 18.0°C (64°F) [RH = 100%]
Pressure (altimeter): 29.59 inches Hg (1002.0 mb)
Winds: from the N (10 degrees) at 6 MPH (5 knots; 2.6 m/s)
Visibility: 4 miles ( 6 km)
Ceiling: 1700 feet AGL
Clouds: few clouds at 200 feet AGL
scattered clouds at 600 feet AGL
broken clouds at 1700 feet AGL
Weather: -SHRA  (light rain showers)

METAR text: RJCC 230930Z 01005KT 7000 -SHRA FEW002 SCT005 BKN018 18/18 Q1002 RMK 1ST002 3ST005 7ST018 A2961
Conditions at: RJCC (CHITOSE (JASDF/C, JP) observed 0930 UTC 23 August 2019
Temperature: 18.0°C (64°F)
Dewpoint: 18.0°C (64°F) [RH = 100%]
Pressure (altimeter): 29.59 inches Hg (1002.0 mb)
Winds: from the N (10 degrees) at 6 MPH (5 knots; 2.6 m/s)
Visibility: 4 miles ( 7 km)
Ceiling: 1800 feet AGL
Clouds: few clouds at 200 feet AGL
scattered clouds at 500 feet AGL
broken clouds at 1800 feet AGL
Weather: -SHRA  (light rain showers)

METAR text: RJCC 230900Z 01005KT 6000 -SHRA FEW002 SCT004 BKN018 18/18 Q1002 RMK 1ST002 3ST004 6ST018 A2961
Conditions at: RJCC (CHITOSE (JASDF/C, JP) observed 0900 UTC 23 August 2019
Temperature: 18.0°C (64°F)
Dewpoint: 18.0°C (64°F) [RH = 100%]
Pressure (altimeter): 29.59 inches Hg (1002.0 mb)
Winds: from the N (10 degrees) at 6 MPH (5 knots; 2.6 m/s)
Visibility: 4 miles ( 6 km)
Ceiling: 1800 feet AGL
Clouds: few clouds at 200 feet AGL
scattered clouds at 400 feet AGL
broken clouds at 1800 feet AGL
Weather: -SHRA  (light rain showers)

METAR text: RJCC 230848Z 02004KT 4900 -SHRA BR FEW003 BKN008 BKN017 18/18 Q1002 RMK 1ST003 5ST008 6ST017 A2961
Conditions at: RJCC (CHITOSE (JASDF/C, JP) observed 0848 UTC 23 August 2019
Temperature: 18.0°C (64°F)
Dewpoint: 18.0°C (64°F) [RH = 100%]
Pressure (altimeter): 29.59 inches Hg (1002.0 mb)
Winds: from the NNE (20 degrees) at 5 MPH (4 knots; 2.1 m/s)
Visibility: 3 miles ( 5 km)
Ceiling: 800 feet AGL
Clouds: few clouds at 300 feet AGL
broken clouds at 800 feet AGL
broken clouds at 1700 feet AGL
Weather: -SHRA BR  (light rain showers, mist)

METAR text: RJCC 230843Z 01004KT 7000 -SHRA FEW003 BKN008 BKN020 18/18 Q1002 RMK 1ST003 5ST008 7CU020 A2961 MOD TURB OBS AT 0830Z TOBBY BTN FL240 AND FL300 B773
Conditions at: RJCC (CHITOSE (JASDF/C, JP) observed 0843 UTC 23 August 2019
Temperature: 18.0°C (64°F)
Dewpoint: 18.0°C (64°F) [RH = 100%]
Pressure (altimeter): 29.59 inches Hg (1002.0 mb)
Winds: from the N (10 degrees) at 5 MPH (4 knots; 2.1 m/s)
Visibility: 4 miles ( 7 km)
Ceiling: 800 feet AGL
Clouds: few clouds at 300 feet AGL
broken clouds at 800 feet AGL
broken clouds at 2000 feet AGL
Weather: -SHRA  (light rain showers)

METAR text: RJCC 230830Z 01004KT 9999 -SHRA FEW003 SCT006 BKN020 18/18 Q1002 RMK 1ST003 3ST006 7CU020 A2961
Conditions at: RJCC (CHITOSE (JASDF/C, JP) observed 0830 UTC 23 August 2019
Temperature: 18.0°C (64°F)
Dewpoint: 18.0°C (64°F) [RH = 100%]
Pressure (altimeter): 29.59 inches Hg (1002.0 mb)
Winds: from the N (10 degrees) at 5 MPH (4 knots; 2.1 m/s)
Visibility: 6 or more miles (10+ km)
Ceiling: 2000 feet AGL
Clouds: few clouds at 300 feet AGL
scattered clouds at 600 feet AGL
broken clouds at 2000 feet AGL
Weather: -SHRA  (light rain showers)

METAR text: RJCC 230800Z 35005KT 310V020 9999 FEW003 SCT012 BKN020 19/18 Q1002 RMK 1ST003 3ST012 6CU020 A2960
Conditions at: RJCC (CHITOSE (JASDF/C, JP) observed 0800 UTC 23 August 2019
Temperature: 19.0°C (66°F)
Dewpoint: 18.0°C (64°F) [RH = 94%]
Pressure (altimeter): 29.59 inches Hg (1002.0 mb)
Winds: from the N (350 degrees) at 6 MPH (5 knots; 2.6 m/s)
Visibility: 6 or more miles (10+ km)
Ceiling: 2000 feet AGL
Clouds: few clouds at 300 feet AGL
scattered clouds at 1200 feet AGL
broken clouds at 2000 feet AGL
Weather: no significant weather observed at this time

METAR text: RJCC 230730Z 35005KT 310V020 9999 -SHRA FEW003 SCT005 BKN015 19/18 Q1002 RMK 1ST003 4ST005 5ST015 A2960
Conditions at: RJCC (CHITOSE (JASDF/C, JP) observed 0730 UTC 23 August 2019
Temperature: 19.0°C (66°F)
Dewpoint: 18.0°C (64°F) [RH = 94%]
Pressure (altimeter): 29.59 inches Hg (1002.0 mb)
Winds: from the N (350 degrees) at 6 MPH (5 knots; 2.6 m/s)
Visibility: 6 or more miles (10+ km)
Ceiling: 1500 feet AGL
Clouds: few clouds at 300 feet AGL
scattered clouds at 500 feet AGL
broken clouds at 1500 feet AGL
Weather: -SHRA  (light rain showers)

METAR text: RJCC 230700Z 27009KT 9999 -SHRA FEW003 BKN005 BKN025 18/18 Q1003
Conditions at: RJCC (CHITOSE (JASDF/C, JP) observed 0700 UTC 23 August 2019
Temperature: 18.0°C (64°F)
Dewpoint: 18.0°C (64°F) [RH = 100%]
Pressure (altimeter): 29.62 inches Hg (1003.0 mb)
Winds: from the W (270 degrees) at 10 MPH (9 knots; 4.6 m/s)
Visibility: 6 or more miles (10+ km)
Ceiling: 500 feet AGL
Clouds: few clouds at 300 feet AGL
broken clouds at 500 feet AGL
broken clouds at 2500 feet AGL
Weather: -SHRA  (light rain showers)

METAR text: RJCC 230630Z 12006KT 9999 -SHRA FEW003 BKN030 BKN060 18/18 Q1001 RMK 1ST003 5CU030 6CU060 A2957 P/FR
Conditions at: RJCC (CHITOSE (JASDF/C, JP) observed 0630 UTC 23 August 2019
Temperature: 18.0°C (64°F)
Dewpoint: 18.0°C (64°F) [RH = 100%]
Pressure (altimeter): 29.56 inches Hg (1001.0 mb)
Winds: from the ESE (120 degrees) at 7 MPH (6 knots; 3.1 m/s)
Visibility: 6 or more miles (10+ km)
Ceiling: 3000 feet AGL
Clouds: few clouds at 300 feet AGL
broken clouds at 3000 feet AGL
broken clouds at 6000 feet AGL
Weather: -SHRA  (light rain showers)

METAR text: RJCC 230600Z 21004KT 150V250 7000 -SHRA FEW003 SCT007 BKN030 18/17 Q1003 RMK 1ST003 3ST007 6CU030 A2963
Conditions at: RJCC (CHITOSE (JASDF/C, JP) observed 0600 UTC 23 August 2019
Temperature: 18.0°C (64°F)
Dewpoint: 17.0°C (63°F) [RH = 94%]
Pressure (altimeter): 29.62 inches Hg (1003.0 mb)
Winds: from the SSW (210 degrees) at 5 MPH (4 knots; 2.1 m/s)
Visibility: 4 miles ( 7 km)
Ceiling: 3000 feet AGL
Clouds: few clouds at 300 feet AGL
scattered clouds at 700 feet AGL
broken clouds at 3000 feet AGL
Weather: -SHRA  (light rain showers)

METAR text: RJCC 230548Z 16003KT 100V220 5000 SHRA BR FEW003 BKN030 BKN060 18/18 Q1003 RMK 1ST003 5CU030 6CU060 A2963
Conditions at: RJCC (CHITOSE (JASDF/C, JP) observed 0548 UTC 23 August 2019
Temperature: 18.0°C (64°F)
Dewpoint: 18.0°C (64°F) [RH = 100%]
Pressure (altimeter): 29.62 inches Hg (1003.0 mb)
Winds: from the SSE (160 degrees) at 3 MPH (3 knots; 1.5 m/s)
Visibility: 3 miles ( 5 km)
Ceiling: 3000 feet AGL
Clouds: few clouds at 300 feet AGL
broken clouds at 3000 feet AGL
broken clouds at 6000 feet AGL
Weather: SHRA BR  (rain showers, mist)

METAR text: RJCC 230530Z 11004KT 070V140 4500 SHRA BR FEW003 BKN030 BKN050 18/18 Q1003 RMK 1ST003 5CU030 6CU050 A2962
Conditions at: RJCC (CHITOSE (JASDF/C, JP) observed 0530 UTC 23 August 2019
Temperature: 18.0°C (64°F)
Dewpoint: 18.0°C (64°F) [RH = 100%]
Pressure (altimeter): 29.62 inches Hg (1003.0 mb)
Winds: from the ESE (110 degrees) at 5 MPH (4 knots; 2.1 m/s)
Visibility: 2.80 miles (4.51 km)
Ceiling: 3000 feet AGL
Clouds: few clouds at 300 feet AGL
broken clouds at 3000 feet AGL
broken clouds at 5000 feet AGL
Weather: SHRA BR  (rain showers, mist)

METAR text: RJCC 230500Z 35003KT 3500 R01L/P2000N R01R/P2000N SHRA BR FEW003 SCT004 BKN030 18/18 Q1003 RMK 1ST003 4ST004 7CU030 A2964
Conditions at: RJCC (CHITOSE (JASDF/C, JP) observed 0500 UTC 23 August 2019
Temperature: 18.0°C (64°F)
Dewpoint: 18.0°C (64°F) [RH = 100%]
Pressure (altimeter): 29.62 inches Hg (1003.0 mb)
Winds: from the N (350 degrees) at 3 MPH (3 knots; 1.5 m/s)
Visibility: 2.17 miles (3.49 km)
Ceiling: 3000 feet AGL
Clouds: few clouds at 300 feet AGL
scattered clouds at 400 feet AGL
broken clouds at 3000 feet AGL
Weather: SHRA BR  (rain showers, mist)

METAR text: RJCC 230448Z 34005KT 4000 R01L/1100VP2000D R01R/1100VP2000D +SHRA BR FEW003 SCT004 BKN030 18/18 Q1004 RMK 1ST003 4ST004 7CU030 A2965
Conditions at: RJCC (CHITOSE (JASDF/C, JP) observed 0448 UTC 23 August 2019
Temperature: 18.0°C (64°F)
Dewpoint: 18.0°C (64°F) [RH = 100%]
Pressure (altimeter): 29.65 inches Hg (1004.0 mb)
Winds: from the NNW (340 degrees) at 6 MPH (5 knots; 2.6 m/s)
Visibility: 2.49 miles (4.01 km)
Ceiling: 3000 feet AGL
Clouds: few clouds at 300 feet AGL
scattered clouds at 400 feet AGL
broken clouds at 3000 feet AGL
Weather: +SHRA BR  (heavy rain showers, mist)

METAR text: RJCC 230430Z 35008KT 5000 -SHRA BR FEW003 SCT005 BKN030 18/18 Q1003 RMK 1ST003 4ST005 7CU030 A2964
Conditions at: RJCC (CHITOSE (JASDF/C, JP) observed 0430 UTC 23 August 2019
Temperature: 18.0°C (64°F)
Dewpoint: 18.0°C (64°F) [RH = 100%]
Pressure (altimeter): 29.62 inches Hg (1003.0 mb)
Winds: from the N (350 degrees) at 9 MPH (8 knots; 4.1 m/s)
Visibility: 3 miles ( 5 km)
Ceiling: 3000 feet AGL
Clouds: few clouds at 300 feet AGL
scattered clouds at 500 feet AGL
broken clouds at 3000 feet AGL
Weather: -SHRA BR  (light rain showers, mist)

METAR text: RJCC 230422Z 35008KT 4900 SHRA BR FEW003 SCT006 BKN030 18/18 Q1004 RMK 1ST003 4ST006 7CU030 A2965
Conditions at: RJCC (CHITOSE (JASDF/C, JP) observed 0422 UTC 23 August 2019
Temperature: 18.0°C (64°F)
Dewpoint: 18.0°C (64°F) [RH = 100%]
Pressure (altimeter): 29.65 inches Hg (1004.0 mb)
Winds: from the N (350 degrees) at 9 MPH (8 knots; 4.1 m/s)
Visibility: 3 miles ( 5 km)
Ceiling: 3000 feet AGL
Clouds: few clouds at 300 feet AGL
scattered clouds at 600 feet AGL
broken clouds at 3000 feet AGL
Weather: SHRA BR  (rain showers, mist)

METAR text: RJCC 230400Z 35008KT 9999 -SHRA FEW003 BKN006 BKN012 18/18 Q1004 RMK 1ST003 5ST006 6ST012 A2966
Conditions at: RJCC (CHITOSE (JASDF/C, JP) observed 0400 UTC 23 August 2019
Temperature: 18.0°C (64°F)
Dewpoint: 18.0°C (64°F) [RH = 100%]
Pressure (altimeter): 29.65 inches Hg (1004.0 mb)
Winds: from the N (350 degrees) at 9 MPH (8 knots; 4.1 m/s)
Visibility: 6 or more miles (10+ km)
Ceiling: 600 feet AGL
Clouds: few clouds at 300 feet AGL
broken clouds at 600 feet AGL
broken clouds at 1200 feet AGL
Weather: -SHRA  (light rain showers)

METAR text: RJCC 230345Z 36006KT 8000 -SHRA FEW003 BKN006 BKN012 18/18 Q1004 RMK 1ST003 5ST006 6ST012 A2966
Conditions at: RJCC (CHITOSE (JASDF/C, JP) observed 0345 UTC 23 August 2019
Temperature: 18.0°C (64°F)
Dewpoint: 18.0°C (64°F) [RH = 100%]
Pressure (altimeter): 29.65 inches Hg (1004.0 mb)
Winds: from the N (360 degrees) at 7 MPH (6 knots; 3.1 m/s)
Visibility: 5 miles ( 8 km)
Ceiling: 600 feet AGL
Clouds: few clouds at 300 feet AGL
broken clouds at 600 feet AGL
broken clouds at 1200 feet AGL
Weather: -SHRA  (light rain showers)

METAR text: RJCC 230330Z 36007KT 5000 SHRA BR FEW003 SCT006 BKN012 18/18 Q1004 RMK 1ST003 4ST006 6ST012 A2966
Conditions at: RJCC (CHITOSE (JASDF/C, JP) observed 0330 UTC 23 August 2019
Temperature: 18.0°C (64°F)
Dewpoint: 18.0°C (64°F) [RH = 100%]
Pressure (altimeter): 29.65 inches Hg (1004.0 mb)
Winds: from the N (360 degrees) at 8 MPH (7 knots; 3.6 m/s)
Visibility: 3 miles ( 5 km)
Ceiling: 1200 feet AGL
Clouds: few clouds at 300 feet AGL
scattered clouds at 600 feet AGL
broken clouds at 1200 feet AGL
Weather: SHRA BR  (rain showers, mist)

METAR text: RJCC 230307Z 34005KT 320V020 4000 R01L/P2000N R01R/P2000N SHRA BR FEW003 BKN006 BKN030 18/18 Q1004 RMK 1ST003 5ST006 7CU030 A2967
Conditions at: RJCC (CHITOSE (JASDF/C, JP) observed 0307 UTC 23 August 2019
Temperature: 18.0°C (64°F)
Dewpoint: 18.0°C (64°F) [RH = 100%]
Pressure (altimeter): 29.65 inches Hg (1004.0 mb)
Winds: from the NNW (340 degrees) at 6 MPH (5 knots; 2.6 m/s)
Visibility: 2.49 miles (4.01 km)
Ceiling: 600 feet AGL
Clouds: few clouds at 300 feet AGL
broken clouds at 600 feet AGL
broken clouds at 3000 feet AGL
Weather: SHRA BR  (rain showers, mist)

METAR text: RJCC 230300Z 02004KT 330V050 4000 -SHRA BR FEW003 SCT006 BKN030 18/18 Q1005 RMK 1ST003 3ST006 7CU030 A2968
Conditions at: RJCC (CHITOSE (JASDF/C, JP) observed 0300 UTC 23 August 2019
Temperature: 18.0°C (64°F)
Dewpoint: 18.0°C (64°F) [RH = 100%]
Pressure (altimeter): 29.68 inches Hg (1005.0 mb)
Winds: from the NNE (20 degrees) at 5 MPH (4 knots; 2.1 m/s)
Visibility: 2.49 miles (4.01 km)
Ceiling: 3000 feet AGL
Clouds: few clouds at 300 feet AGL
scattered clouds at 600 feet AGL
broken clouds at 3000 feet AGL
Weather: -SHRA BR  (light rain showers, mist)

METAR text: RJCC 230230Z 36004KT 3500 R01L/P2000N R01R/P2000N -SHRA BR FEW003 SCT006 BKN020 18/18 Q1005
Conditions at: RJCC (CHITOSE (JASDF/C, JP) observed 0230 UTC 23 August 2019
Temperature: 18.0°C (64°F)
Dewpoint: 18.0°C (64°F) [RH = 100%]
Pressure (altimeter): 29.68 inches Hg (1005.0 mb)
Winds: from the N (360 degrees) at 5 MPH (4 knots; 2.1 m/s)
Visibility: 2.17 miles (3.49 km)
Ceiling: 2000 feet AGL
Clouds: few clouds at 300 feet AGL
scattered clouds at 600 feet AGL
broken clouds at 2000 feet AGL
Weather: -SHRA BR  (light rain showers, mist)

METAR text: RJCC 230213Z 34004KT 210V010 3200 R01L/P2000N R01R/P2000N -SHRA BR FEW006 BKN020 18/17 Q1005 RMK 1ST006 7CU020 A2968
Conditions at: RJCC (CHITOSE (JASDF/C, JP) observed 0213 UTC 23 August 2019
Temperature: 18.0°C (64°F)
Dewpoint: 17.0°C (63°F) [RH = 94%]
Pressure (altimeter): 29.68 inches Hg (1005.0 mb)
Winds: from the NNW (340 degrees) at 5 MPH (4 knots; 2.1 m/s)
Visibility: 1.99 miles (3.20 km)
Ceiling: 2000 feet AGL
Clouds: few clouds at 600 feet AGL
broken clouds at 2000 feet AGL
Weather: -SHRA BR  (light rain showers, mist)

Forecast for: RJCC (CHITOSE (JASDF/C, JP)
Text: TAF RJCC 241107Z 2412/2518 33006KT 9999 FEW015 BKN035
Forecast period: 1200 UTC 24 August 2019 to 0000 UTC 25 August 2019
Forecast type: FROM: standard forecast or significant change
Winds: from the NNW (330 degrees) at 7 MPH (6 knots; 3.1 m/s)
Visibility: 6 or more miles 10+ km)
Ceiling: 3500 feet AGL
Clouds: few clouds at 1500 feet AGL
broken clouds at 3500 feet AGL
Weather: no significant weather forecast for this period
Text: BECMG 2500/2503 34017KT
Forecast period: 0000 to 1200 UTC 25 August 2019
Forecast type: BECOMING: Conditions expected to become as follows by 0300 UTC 25 August 2019
Winds: from the NNW (340 degrees) at 20 MPH (17 knots; 8.7 m/s)
Visibility: 6 or more miles 10+ km)
Ceiling: 3500 feet AGL
Clouds: few clouds at 1500 feet AGL
broken clouds at 3500 feet AGL
Weather: no significant weather forecast for this period
Text: BECMG 2512/2515 33007KT
Forecast period: 1200 to 1800 UTC 25 August 2019
Forecast type: BECOMING: Conditions expected to become as follows by 1500 UTC 25 August 2019
Winds: from the NNW (330 degrees) at 8 MPH (7 knots; 3.6 m/s)
Visibility: 6 or more miles 10+ km)
Ceiling: 3500 feet AGL
Clouds: few clouds at 1500 feet AGL
broken clouds at 3500 feet AGL
Weather: no significant weather forecast for this period